createdAt,value
2016-11-24T00:00:25.396Z,0
2016-11-24T00:01:25.376Z,0
2016-11-24T00:02:25.914Z,0
2016-11-24T00:03:25.343Z,0
2016-11-24T00:04:25.355Z,0
2016-11-24T00:05:25.327Z,0
2016-11-24T00:06:25.301Z,0
2016-11-24T00:07:25.280Z,0
2016-11-24T00:08:25.282Z,0
2016-11-24T00:09:25.268Z,0
2016-11-24T00:10:25.245Z,0
2016-11-24T00:11:25.222Z,0
2016-11-24T00:12:25.234Z,0
2016-11-24T00:13:25.199Z,0
2016-11-24T00:14:25.182Z,0
2016-11-24T00:15:25.174Z,0
2016-11-24T00:16:25.155Z,0
2016-11-24T00:17:25.135Z,0
2016-11-24T00:18:25.126Z,0
2016-11-24T00:19:25.114Z,0
2016-11-24T00:20:25.098Z,0
2016-11-24T00:21:25.106Z,0
2016-11-24T00:22:25.066Z,0
2016-11-24T00:23:25.059Z,0
2016-11-24T00:24:25.040Z,0
2016-11-24T00:25:25.056Z,0
2016-11-24T00:26:25.011Z,0
2016-11-24T00:27:24.996Z,0
2016-11-24T00:28:24.981Z,0
2016-11-24T00:29:25.289Z,0
2016-11-24T00:30:24.956Z,0
2016-11-24T00:31:24.940Z,0
2016-11-24T00:32:24.933Z,0
2016-11-24T00:33:24.913Z,0
2016-11-24T00:34:24.900Z,0
2016-11-24T00:35:24.886Z,0
2016-11-24T00:36:24.874Z,0
2016-11-24T00:37:24.860Z,0
2016-11-24T00:38:24.844Z,0
2016-11-24T00:39:24.830Z,0
2016-11-24T00:40:24.819Z,0
2016-11-24T00:41:24.806Z,0
2016-11-24T00:42:24.789Z,0
2016-11-24T00:43:24.778Z,0
2016-11-24T00:44:24.759Z,0
2016-11-24T00:45:25.065Z,0
2016-11-24T00:46:24.733Z,0
2016-11-24T00:47:24.737Z,0
2016-11-24T00:48:24.710Z,0
2016-11-24T00:49:24.694Z,0
2016-11-24T00:50:24.687Z,0
2016-11-24T00:51:24.668Z,0
2016-11-24T00:52:24.651Z,0
2016-11-24T00:53:24.641Z,0
2016-11-24T00:54:24.621Z,0
2016-11-24T00:55:24.611Z,0
2016-11-24T00:56:24.603Z,0
2016-11-24T00:57:24.581Z,0
2016-11-24T00:58:24.567Z,0
2016-11-24T00:59:24.554Z,0
2016-11-24T01:00:24.540Z,0
2016-11-24T01:01:24.526Z,0
2016-11-24T01:02:24.566Z,0
2016-11-24T01:03:24.498Z,0
2016-11-24T01:04:24.484Z,0
2016-11-24T01:05:24.473Z,0
2016-11-24T01:06:24.477Z,0
2016-11-24T01:07:24.444Z,0
2016-11-24T01:08:24.430Z,0
2016-11-24T01:09:24.413Z,0
2016-11-24T01:10:24.400Z,0
2016-11-24T01:11:24.391Z,0
2016-11-24T01:12:24.375Z,0
2016-11-24T01:13:24.364Z,0
2016-11-24T01:14:24.351Z,0
2016-11-24T01:15:24.333Z,0
2016-11-24T01:16:24.318Z,0
2016-11-24T01:17:24.304Z,0
2016-11-24T01:18:24.292Z,0
2016-11-24T01:19:24.306Z,0
2016-11-24T01:20:24.261Z,0
2016-11-24T01:21:24.252Z,0
2016-11-24T01:22:24.235Z,0
2016-11-24T01:23:24.227Z,0
2016-11-24T01:24:24.212Z,0
2016-11-24T01:25:24.198Z,0
2016-11-24T01:26:24.185Z,0
2016-11-24T01:27:24.173Z,0
2016-11-24T01:28:24.158Z,0
2016-11-24T01:29:24.143Z,0
2016-11-24T01:30:24.134Z,0
2016-11-24T01:31:24.120Z,0
2016-11-24T01:32:24.105Z,0
2016-11-24T01:33:24.092Z,0
2016-11-24T01:34:24.130Z,0
2016-11-24T01:35:24.062Z,0
2016-11-24T01:36:24.049Z,0
2016-11-24T01:37:24.039Z,0
2016-11-24T01:38:24.027Z,0
2016-11-24T01:39:24.326Z,0
2016-11-24T01:40:23.995Z,0
2016-11-24T01:41:24.240Z,0
2016-11-24T01:42:23.969Z,0
2016-11-24T01:43:23.956Z,0
2016-11-24T01:44:23.940Z,0
2016-11-24T01:45:23.931Z,0
2016-11-24T01:46:23.913Z,0
2016-11-24T01:47:23.898Z,0
2016-11-24T01:48:23.889Z,0
2016-11-24T01:49:23.875Z,0
2016-11-24T01:50:23.860Z,0
2016-11-24T01:51:23.845Z,0
2016-11-24T01:52:23.833Z,0
2016-11-24T01:53:23.822Z,0
2016-11-24T01:54:23.805Z,0
2016-11-24T01:55:23.802Z,0
2016-11-24T01:56:24.095Z,0
2016-11-24T01:57:23.765Z,0
2016-11-24T01:58:23.758Z,0
2016-11-24T01:59:23.735Z,0
2016-11-24T02:00:23.730Z,0
2016-11-24T02:01:23.712Z,0
2016-11-24T02:02:23.695Z,0
2016-11-24T02:03:23.684Z,0
2016-11-24T02:04:23.834Z,0
2016-11-24T02:05:23.658Z,0
2016-11-24T02:06:23.641Z,0
2016-11-24T02:07:23.628Z,0
2016-11-24T02:08:23.610Z,0
2016-11-24T02:09:23.597Z,0
2016-11-24T02:10:23.587Z,0
2016-11-24T02:11:23.572Z,0
2016-11-24T02:12:23.886Z,0
2016-11-24T02:13:24.735Z,0
2016-11-24T02:14:23.559Z,0
2016-11-24T02:15:23.520Z,0
2016-11-24T02:16:23.505Z,0
2016-11-24T02:17:23.493Z,0
2016-11-24T02:18:23.481Z,0
2016-11-24T02:19:23.463Z,0
2016-11-24T02:20:23.460Z,0
2016-11-24T02:21:23.436Z,0
2016-11-24T02:22:23.449Z,0
2016-11-24T02:23:23.427Z,0
2016-11-24T02:24:23.399Z,0
2016-11-24T02:25:23.390Z,0
2016-11-24T02:26:23.372Z,0
2016-11-24T02:27:23.357Z,0
2016-11-24T02:28:23.342Z,0
2016-11-24T02:29:23.325Z,0
2016-11-24T02:30:23.313Z,0
2016-11-24T02:31:23.299Z,0
2016-11-24T02:32:23.353Z,0
2016-11-24T02:33:23.271Z,0
2016-11-24T02:34:23.266Z,0
2016-11-24T02:35:23.247Z,0
2016-11-24T02:36:23.237Z,0
2016-11-24T02:37:23.226Z,0
2016-11-24T02:38:23.214Z,0
2016-11-24T02:39:23.192Z,0
2016-11-24T02:40:23.194Z,0
2016-11-24T02:41:23.177Z,0
2016-11-24T02:42:23.152Z,0
2016-11-24T02:43:23.169Z,0
2016-11-24T02:44:23.139Z,0
2016-11-24T02:45:23.113Z,0
2016-11-24T02:46:23.102Z,0
2016-11-24T02:47:23.088Z,0
2016-11-24T02:48:23.091Z,0
2016-11-24T02:49:23.055Z,0
2016-11-24T02:50:23.055Z,0
2016-11-24T02:51:23.034Z,0
2016-11-24T02:52:23.017Z,0
2016-11-24T02:53:23.004Z,0
2016-11-24T02:54:22.992Z,0
2016-11-24T02:55:22.981Z,0
2016-11-24T02:56:22.963Z,0
2016-11-24T02:57:22.947Z,0
2016-11-24T02:58:22.937Z,0
2016-11-24T02:59:22.922Z,0
2016-11-24T03:00:22.911Z,0
2016-11-24T03:01:22.892Z,0
2016-11-24T03:02:22.884Z,0
2016-11-24T03:03:22.874Z,0
2016-11-24T03:04:22.856Z,0
2016-11-24T03:05:22.842Z,0
2016-11-24T03:06:22.825Z,0
2016-11-24T03:07:22.813Z,0
2016-11-24T03:08:22.823Z,0
2016-11-24T03:09:22.783Z,0
2016-11-24T03:10:22.771Z,0
2016-11-24T03:11:22.756Z,0
2016-11-24T03:12:22.744Z,0
2016-11-24T03:13:22.733Z,0
2016-11-24T03:14:22.756Z,0
2016-11-24T03:15:22.701Z,0
2016-11-24T03:16:22.689Z,0
2016-11-24T03:17:22.683Z,0
2016-11-24T03:18:22.661Z,0
2016-11-24T03:19:22.649Z,0
2016-11-24T03:20:22.643Z,0
2016-11-24T03:21:22.622Z,0
2016-11-24T03:22:22.609Z,0
2016-11-24T03:23:22.593Z,0
2016-11-24T03:24:22.576Z,0
2016-11-24T03:25:22.564Z,0
2016-11-24T03:26:22.865Z,0
2016-11-24T03:27:22.540Z,0
2016-11-24T03:28:22.521Z,0
2016-11-24T03:29:22.505Z,0
2016-11-24T03:30:22.492Z,0
2016-11-24T03:31:22.484Z,0
2016-11-24T03:32:22.467Z,0
2016-11-24T03:33:22.459Z,0
2016-11-24T03:34:22.442Z,0
2016-11-24T03:35:22.424Z,0
2016-11-24T03:36:22.418Z,0
2016-11-24T03:37:22.415Z,0
2016-11-24T03:38:22.390Z,0
2016-11-24T03:39:22.373Z,0
2016-11-24T03:40:22.361Z,0
2016-11-24T03:41:22.338Z,0
2016-11-24T03:42:22.334Z,0
2016-11-24T03:43:22.319Z,0
2016-11-24T03:44:22.304Z,0
2016-11-24T03:45:22.296Z,0
2016-11-24T03:46:22.273Z,0
2016-11-24T03:47:22.261Z,0
2016-11-24T03:48:22.253Z,0
2016-11-24T03:49:22.236Z,0
2016-11-24T03:50:22.223Z,0
2016-11-24T03:51:22.205Z,0
2016-11-24T03:52:22.197Z,0
2016-11-24T03:53:22.180Z,0
2016-11-24T03:54:22.170Z,0
2016-11-24T03:55:22.152Z,0
2016-11-24T03:56:22.135Z,0
2016-11-24T03:57:22.125Z,0
2016-11-24T03:58:22.117Z,0
2016-11-24T03:59:22.097Z,0
2016-11-24T04:00:22.082Z,0
2016-11-24T04:01:22.068Z,0
2016-11-24T04:02:22.052Z,0
2016-11-24T04:03:22.044Z,0
2016-11-24T04:04:22.025Z,0
2016-11-24T04:05:22.015Z,0
2016-11-24T04:06:22.001Z,0
2016-11-24T04:07:21.982Z,0
2016-11-24T04:08:21.975Z,0
2016-11-24T04:09:21.962Z,0
2016-11-24T04:10:21.945Z,0
2016-11-24T04:11:21.933Z,0
2016-11-24T04:12:21.917Z,0
2016-11-24T04:13:21.905Z,0
2016-11-24T04:14:21.891Z,0
2016-11-24T04:15:21.877Z,0
2016-11-24T04:16:21.860Z,0
2016-11-24T04:17:21.844Z,0
2016-11-24T04:18:21.835Z,0
2016-11-24T04:19:21.819Z,0
2016-11-24T04:20:21.811Z,0
2016-11-24T04:21:21.791Z,0
2016-11-24T04:22:21.780Z,0
2016-11-24T04:23:21.764Z,0
2016-11-24T04:24:21.761Z,0
2016-11-24T04:25:21.739Z,0
2016-11-24T04:26:21.738Z,0
2016-11-24T04:27:21.713Z,0
2016-11-24T04:28:21.726Z,0
2016-11-24T04:29:21.683Z,0
2016-11-24T04:30:21.663Z,0
2016-11-24T04:31:21.654Z,0
2016-11-24T04:32:21.642Z,0
2016-11-24T04:33:21.654Z,0
2016-11-24T04:34:21.615Z,0
2016-11-24T04:35:21.603Z,0
2016-11-24T04:36:21.585Z,0
2016-11-24T04:37:21.581Z,0
2016-11-24T04:38:21.558Z,0
2016-11-24T04:39:21.562Z,0
2016-11-24T04:40:21.533Z,0
2016-11-24T04:41:21.521Z,0
2016-11-24T04:42:21.500Z,0
2016-11-24T04:43:21.499Z,0
2016-11-24T04:44:21.482Z,0
2016-11-24T04:45:21.464Z,0
2016-11-24T04:46:21.445Z,0
2016-11-24T04:47:21.434Z,0
2016-11-24T04:48:21.426Z,0
2016-11-24T04:49:21.408Z,0
2016-11-24T04:50:21.396Z,0
2016-11-24T04:51:21.383Z,0
2016-11-24T04:52:21.366Z,0
2016-11-24T04:53:21.358Z,0
2016-11-24T04:54:21.343Z,0
2016-11-24T04:55:21.334Z,0
2016-11-24T04:56:21.311Z,0
2016-11-24T04:57:21.298Z,0
2016-11-24T04:58:21.284Z,0
2016-11-24T04:59:21.270Z,0
2016-11-24T05:00:21.255Z,0
2016-11-24T05:01:21.242Z,0
2016-11-24T05:02:21.231Z,0
2016-11-24T05:03:21.218Z,0
2016-11-24T05:04:21.201Z,0
2016-11-24T05:05:21.187Z,0
2016-11-24T05:06:21.173Z,0
2016-11-24T05:07:21.159Z,0
2016-11-24T05:08:21.152Z,0
2016-11-24T05:09:21.133Z,0
2016-11-24T05:10:21.117Z,0
2016-11-24T05:11:21.105Z,0
2016-11-24T05:12:21.085Z,0
2016-11-24T05:13:21.076Z,0
2016-11-24T05:14:21.065Z,0
2016-11-24T05:15:21.054Z,0
2016-11-24T05:16:21.037Z,0
2016-11-24T05:17:21.019Z,0
2016-11-24T05:18:21.014Z,0
2016-11-24T05:19:20.987Z,0
2016-11-24T05:20:20.977Z,0
2016-11-24T05:21:20.965Z,0
2016-11-24T05:22:20.944Z,0
2016-11-24T05:23:20.940Z,0
2016-11-24T05:24:20.918Z,0
2016-11-24T05:25:20.911Z,0
2016-11-24T05:26:20.893Z,0
2016-11-24T05:27:20.879Z,0
2016-11-24T05:28:20.862Z,0
2016-11-24T05:29:20.853Z,0
2016-11-24T05:30:20.835Z,0
2016-11-24T05:31:20.825Z,0
2016-11-24T05:32:20.817Z,0
2016-11-24T05:33:20.791Z,0
2016-11-24T05:34:20.794Z,0
2016-11-24T05:35:20.767Z,0
2016-11-24T05:36:20.747Z,0
2016-11-24T05:37:20.740Z,0
2016-11-24T05:38:20.723Z,0
2016-11-24T05:39:20.708Z,0
2016-11-24T05:40:20.691Z,0
2016-11-24T05:41:20.708Z,0
2016-11-24T05:42:20.673Z,0
2016-11-24T05:43:20.647Z,0
2016-11-24T05:44:20.644Z,0
2016-11-24T05:45:20.939Z,0
2016-11-24T05:46:20.611Z,0
2016-11-24T05:47:20.593Z,0
2016-11-24T05:48:20.613Z,0
2016-11-24T05:49:20.561Z,0
2016-11-24T05:50:50.320Z,0
2016-11-24T05:51:20.541Z,0
2016-11-24T05:52:20.532Z,0
2016-11-24T05:53:20.504Z,0
2016-11-24T05:54:20.499Z,0
2016-11-24T05:55:20.483Z,0
2016-11-24T05:56:20.462Z,0
2016-11-24T05:57:20.451Z,0
2016-11-24T05:58:20.436Z,0
2016-11-24T05:59:20.427Z,0
2016-11-24T06:00:20.408Z,0
2016-11-24T06:01:20.396Z,0
2016-11-24T06:02:20.380Z,0
2016-11-24T06:03:20.370Z,0
2016-11-24T06:04:20.354Z,0
2016-11-24T06:05:20.340Z,0
2016-11-24T06:06:20.331Z,0
2016-11-24T06:07:20.313Z,0
2016-11-24T06:08:20.304Z,0
2016-11-24T06:09:20.288Z,0
2016-11-24T06:10:20.277Z,4
2016-11-24T06:11:20.262Z,0
2016-11-24T06:12:20.246Z,0
2016-11-24T06:13:20.232Z,4
2016-11-24T06:14:20.217Z,0
2016-11-24T06:15:20.202Z,4
2016-11-24T06:16:20.192Z,4
2016-11-24T06:17:20.179Z,4
2016-11-24T06:18:20.164Z,4
2016-11-24T06:19:20.149Z,8
2016-11-24T06:20:20.146Z,8
2016-11-24T06:21:20.123Z,8
2016-11-24T06:22:20.108Z,8
2016-11-24T06:23:20.095Z,12
2016-11-24T06:24:20.081Z,12
2016-11-24T06:25:20.069Z,16
2016-11-24T06:26:20.058Z,16
2016-11-24T06:27:20.043Z,20
2016-11-24T06:28:20.034Z,24
2016-11-24T06:29:20.014Z,28
2016-11-24T06:30:19.999Z,32
2016-11-24T06:31:19.989Z,32
2016-11-24T06:32:20.004Z,36
2016-11-24T06:33:19.978Z,40
2016-11-24T06:34:19.950Z,48
2016-11-24T06:35:19.933Z,48
2016-11-24T06:36:19.920Z,56
2016-11-24T06:37:19.911Z,60
2016-11-24T06:38:19.895Z,64
2016-11-24T06:39:19.882Z,68
2016-11-24T06:40:19.867Z,76
2016-11-24T06:41:19.856Z,84
2016-11-24T06:42:19.848Z,92
2016-11-24T06:43:19.835Z,100
2016-11-24T06:44:19.824Z,108
2016-11-24T06:45:19.805Z,116
2016-11-24T06:46:19.792Z,128
2016-11-24T06:47:19.779Z,144
2016-11-24T06:48:19.763Z,152
2016-11-24T06:49:19.751Z,160
2016-11-24T06:50:19.739Z,172
2016-11-24T06:51:19.725Z,188
2016-11-24T06:52:19.712Z,200
2016-11-24T06:53:19.705Z,224
2016-11-24T06:54:19.682Z,236
2016-11-24T06:55:19.672Z,264
2016-11-24T06:56:19.659Z,292
2016-11-24T06:57:19.649Z,316
2016-11-24T06:58:19.634Z,324
2016-11-24T06:59:19.613Z,352
2016-11-24T07:00:19.602Z,360
2016-11-24T07:01:19.596Z,396
2016-11-24T07:02:19.581Z,428
2016-11-24T07:03:19.570Z,436
2016-11-24T07:04:19.555Z,452
2016-11-24T07:05:19.570Z,468
2016-11-24T07:06:19.529Z,492
2016-11-24T07:07:19.516Z,496
2016-11-24T07:08:19.501Z,520
2016-11-24T07:09:19.798Z,528
2016-11-24T07:10:19.478Z,548
2016-11-24T07:11:19.459Z,540
2016-11-24T07:12:19.451Z,536
2016-11-24T07:13:19.436Z,544
2016-11-24T07:14:19.428Z,564
2016-11-24T07:15:19.404Z,604
2016-11-24T07:16:19.401Z,616
2016-11-24T07:17:19.382Z,652
2016-11-24T07:18:19.376Z,652
2016-11-24T07:19:19.367Z,668
2016-11-24T07:20:19.348Z,708
2016-11-24T07:21:19.339Z,760
2016-11-24T07:22:19.322Z,780
2016-11-24T07:23:19.306Z,816
2016-11-24T07:24:19.292Z,884
2016-11-24T07:25:19.280Z,920
2016-11-24T07:26:19.264Z,996
2016-11-24T07:27:19.252Z,956
2016-11-24T07:28:19.235Z,936
2016-11-24T07:29:19.250Z,984
2016-11-24T07:30:19.217Z,1028
2016-11-24T07:31:19.209Z,1128
2016-11-24T07:32:19.192Z,1192
2016-11-24T07:33:19.212Z,1136
2016-11-24T07:34:19.165Z,1112
2016-11-24T07:35:19.161Z,1192
2016-11-24T07:36:19.134Z,1216
2016-11-24T07:37:19.129Z,1292
2016-11-24T07:38:19.120Z,1272
2016-11-24T07:39:19.100Z,1228
2016-11-24T07:40:19.089Z,1268
2016-11-24T07:41:19.074Z,1196
2016-11-24T07:42:19.060Z,1104
2016-11-24T07:43:19.046Z,1044
2016-11-24T07:44:19.070Z,996
2016-11-24T07:45:19.022Z,904
2016-11-24T07:46:19.009Z,912
2016-11-24T07:47:18.993Z,900
2016-11-24T07:48:18.990Z,944
2016-11-24T07:49:18.978Z,940
2016-11-24T07:50:18.962Z,940
2016-11-24T07:51:18.944Z,944
2016-11-24T07:52:18.934Z,984
2016-11-24T07:53:18.923Z,1144
2016-11-24T07:54:18.914Z,1324
2016-11-24T07:55:18.905Z,1160
2016-11-24T07:56:18.882Z,1176
2016-11-24T07:57:18.872Z,1264
2016-11-24T07:58:19.173Z,1264
2016-11-24T07:59:18.845Z,1224
2016-11-24T08:00:18.833Z,1344
2016-11-24T08:01:18.823Z,1340
2016-11-24T08:02:18.806Z,1224
2016-11-24T08:03:18.800Z,1220
2016-11-24T08:04:18.784Z,1292
2016-11-24T08:05:18.767Z,1304
2016-11-24T08:06:18.758Z,1340
2016-11-24T08:07:18.744Z,1440
2016-11-24T08:08:18.736Z,1528
2016-11-24T08:09:18.720Z,1656
2016-11-24T08:10:18.705Z,1800
2016-11-24T08:11:18.689Z,1960
2016-11-24T08:12:18.678Z,1996
2016-11-24T08:13:18.664Z,2024
2016-11-24T08:14:18.663Z,2156
2016-11-24T08:15:18.636Z,2252
2016-11-24T08:16:18.632Z,2104
2016-11-24T08:17:18.618Z,2040
2016-11-24T08:18:18.620Z,1980
2016-11-24T08:19:18.616Z,1956
2016-11-24T08:20:18.577Z,1964
2016-11-24T08:21:18.565Z,2012
2016-11-24T08:22:18.560Z,1932
2016-11-24T08:23:18.545Z,1996
2016-11-24T08:24:18.530Z,1988
2016-11-24T08:25:18.515Z,1988
2016-11-24T08:26:18.505Z,2072
2016-11-24T08:27:18.495Z,2320
2016-11-24T08:28:18.477Z,2364
2016-11-24T08:29:18.462Z,2360
2016-11-24T08:30:18.450Z,2448
2016-11-24T08:31:18.441Z,2632
2016-11-24T08:32:18.427Z,2704
2016-11-24T08:33:18.422Z,2704
2016-11-24T08:34:18.402Z,2680
2016-11-24T08:35:18.739Z,2528
2016-11-24T08:36:18.376Z,2648
2016-11-24T08:37:18.363Z,2736
2016-11-24T08:38:18.355Z,2796
2016-11-24T08:39:18.340Z,3092
2016-11-24T08:40:18.325Z,3216
2016-11-24T08:41:18.314Z,3092
2016-11-24T08:42:18.302Z,3020
2016-11-24T08:43:18.295Z,2968
2016-11-24T08:44:18.276Z,3076
2016-11-24T08:45:18.277Z,3232
2016-11-24T08:46:18.249Z,3332
2016-11-24T08:47:18.239Z,3500
2016-11-24T08:48:18.223Z,3552
2016-11-24T08:49:18.221Z,3400
2016-11-24T08:50:18.199Z,3284
2016-11-24T08:51:18.194Z,3500
2016-11-24T08:52:18.176Z,3440
2016-11-24T08:53:18.173Z,3432
2016-11-24T08:54:18.153Z,3384
2016-11-24T08:55:18.167Z,3344
2016-11-24T08:56:18.136Z,3056
2016-11-24T08:57:18.116Z,3096
2016-11-24T08:58:18.102Z,2948
2016-11-24T08:59:18.099Z,2776
2016-11-24T09:00:18.081Z,2920
2016-11-24T09:01:18.071Z,3192
2016-11-24T09:02:18.056Z,3468
2016-11-24T09:03:18.041Z,3472
2016-11-24T09:04:18.025Z,3232
2016-11-24T09:05:18.016Z,2900
2016-11-24T09:06:18.006Z,2688
2016-11-24T09:07:17.993Z,3068
2016-11-24T09:08:17.979Z,3176
2016-11-24T09:09:17.974Z,3432
2016-11-24T09:10:17.953Z,3404
2016-11-24T09:11:18.264Z,3544
2016-11-24T09:12:17.933Z,3524
2016-11-24T09:13:17.919Z,3448
2016-11-24T09:14:17.914Z,3472
2016-11-24T09:15:17.891Z,3612
2016-11-24T09:16:17.884Z,3920
2016-11-24T09:17:17.942Z,4116
2016-11-24T09:18:17.853Z,3724
2016-11-24T09:19:17.851Z,3904
2016-11-24T09:20:18.149Z,4420
2016-11-24T09:21:17.821Z,4336
2016-11-24T09:22:17.813Z,3532
2016-11-24T09:23:17.801Z,3568
2016-11-24T09:24:17.785Z,4044
2016-11-24T09:25:17.772Z,4716
2016-11-24T09:26:17.764Z,4480
2016-11-24T09:27:17.744Z,4312
2016-11-24T09:28:17.737Z,4156
2016-11-24T09:29:17.722Z,4096
2016-11-24T09:30:17.706Z,3680
2016-11-24T09:31:17.698Z,4504
2016-11-24T09:32:17.688Z,5012
2016-11-24T09:33:17.670Z,4356
2016-11-24T09:34:17.662Z,4204
2016-11-24T09:35:17.692Z,4648
2016-11-24T09:36:17.637Z,4328
2016-11-24T09:37:17.631Z,3868
2016-11-24T09:38:17.610Z,4228
2016-11-24T09:39:17.608Z,4192
2016-11-24T09:40:17.583Z,3664
2016-11-24T09:41:17.579Z,3548
2016-11-24T09:42:17.562Z,3144
2016-11-24T09:43:17.552Z,2996
2016-11-24T09:44:17.539Z,2988
2016-11-24T09:45:17.525Z,2976
2016-11-24T09:46:17.512Z,2592
2016-11-24T09:47:17.503Z,2564
2016-11-24T09:48:17.490Z,2628
2016-11-24T09:49:17.508Z,2940
2016-11-24T09:50:17.468Z,3084
2016-11-24T09:51:17.451Z,3556
2016-11-24T09:52:17.443Z,3684
2016-11-24T09:53:17.425Z,3892
2016-11-24T09:54:17.424Z,4304
2016-11-24T09:55:17.405Z,4208
2016-11-24T09:56:17.396Z,4104
2016-11-24T09:57:17.411Z,4172
2016-11-24T09:58:17.366Z,4112
2016-11-24T09:59:17.356Z,4368
2016-11-24T10:00:17.415Z,4340
2016-11-24T10:01:17.335Z,4344
2016-11-24T10:02:17.322Z,4324
2016-11-24T10:03:17.306Z,3956
2016-11-24T10:04:17.292Z,3496
2016-11-24T10:05:17.283Z,3436
2016-11-24T10:06:17.272Z,3620
2016-11-24T10:07:17.263Z,3464
2016-11-24T10:08:17.245Z,3484
2016-11-24T10:09:17.232Z,3520
2016-11-24T10:10:17.227Z,3724
2016-11-24T10:11:17.212Z,3192
2016-11-24T10:12:17.197Z,2808
2016-11-24T10:13:17.190Z,2696
2016-11-24T10:14:17.175Z,2844
2016-11-24T10:15:17.163Z,3056
2016-11-24T10:16:17.149Z,3332
2016-11-24T10:17:17.144Z,3148
2016-11-24T10:18:17.131Z,2992
2016-11-24T10:19:17.116Z,3104
2016-11-24T10:20:17.105Z,3000
2016-11-24T10:21:17.091Z,3256
2016-11-24T10:22:17.076Z,3088
2016-11-24T10:23:17.066Z,2744
2016-11-24T10:24:17.054Z,2636
2016-11-24T10:25:17.041Z,2968
2016-11-24T10:26:17.030Z,3452
2016-11-24T10:27:17.017Z,3996
2016-11-24T10:28:17.008Z,3660
2016-11-24T10:29:17.001Z,3904
2016-11-24T10:30:16.991Z,3932
2016-11-24T10:31:16.971Z,3880
2016-11-24T10:32:16.960Z,4288
2016-11-24T10:33:16.953Z,3876
2016-11-24T10:34:16.934Z,3948
2016-11-24T10:35:16.931Z,3576
2016-11-24T10:36:16.987Z,3212
2016-11-24T10:37:17.262Z,3296
2016-11-24T10:38:16.885Z,3292
2016-11-24T10:39:16.877Z,3504
2016-11-24T10:40:16.854Z,3592
2016-11-24T10:41:16.853Z,3416
2016-11-24T10:42:16.836Z,3172
2016-11-24T10:43:16.819Z,3052
2016-11-24T10:44:17.129Z,2996
2016-11-24T10:45:16.794Z,3112
2016-11-24T10:46:16.785Z,3076
2016-11-24T10:47:16.774Z,3132
2016-11-24T10:48:16.760Z,3088
2016-11-24T10:49:16.755Z,2996
2016-11-24T10:50:16.734Z,3096
2016-11-24T10:51:16.727Z,3136
2016-11-24T10:52:16.714Z,3116
2016-11-24T10:53:16.698Z,2960
2016-11-24T10:54:16.685Z,3008
2016-11-24T10:55:16.678Z,3140
2016-11-24T10:56:16.665Z,3176
2016-11-24T10:57:16.659Z,3136
2016-11-24T10:58:16.637Z,3316
2016-11-24T10:59:16.630Z,3312
2016-11-24T11:00:16.618Z,3136
2016-11-24T11:01:16.605Z,3096
2016-11-24T11:02:16.590Z,2992
2016-11-24T11:03:16.585Z,2972
2016-11-24T11:04:16.564Z,2900
2016-11-24T11:05:16.554Z,2812
2016-11-24T11:06:16.535Z,2844
2016-11-24T11:07:16.528Z,2776
2016-11-24T11:08:16.517Z,2984
2016-11-24T11:09:16.502Z,3040
2016-11-24T11:10:16.490Z,2780
2016-11-24T11:11:16.480Z,2716
2016-11-24T11:12:16.466Z,2788
2016-11-24T11:13:16.461Z,2888
2016-11-24T11:14:16.440Z,2948
2016-11-24T11:15:16.741Z,2880
2016-11-24T11:16:16.446Z,2860
2016-11-24T11:17:16.405Z,2816
2016-11-24T11:18:16.391Z,2972
2016-11-24T11:19:16.380Z,3140
2016-11-24T11:20:16.396Z,2992
2016-11-24T11:21:16.358Z,2840
2016-11-24T11:22:16.343Z,2732
2016-11-24T11:23:16.336Z,2840
2016-11-24T11:24:16.318Z,2984
2016-11-24T11:25:16.303Z,3064
2016-11-24T11:26:16.297Z,3080
2016-11-24T11:27:16.281Z,3136
2016-11-24T11:28:16.271Z,3200
2016-11-24T11:29:16.258Z,3360
2016-11-24T11:30:16.249Z,3384
2016-11-24T11:31:16.233Z,3452
2016-11-24T11:32:16.218Z,3376
2016-11-24T11:33:16.527Z,3392
2016-11-24T11:34:16.197Z,3200
2016-11-24T11:35:16.184Z,2632
2016-11-24T11:36:16.173Z,2928
2016-11-24T11:37:16.160Z,2884
2016-11-24T11:38:16.456Z,2724
2016-11-24T11:39:16.133Z,2748
2016-11-24T11:40:16.124Z,2912
2016-11-24T11:41:16.108Z,2840
2016-11-24T11:42:16.100Z,2856
2016-11-24T11:43:16.087Z,3292
2016-11-24T11:44:16.075Z,3456
2016-11-24T11:45:16.058Z,2848
2016-11-24T11:46:16.051Z,2764
2016-11-24T11:47:16.036Z,2488
2016-11-24T11:48:16.021Z,2512
2016-11-24T11:49:16.015Z,2500
2016-11-24T11:50:15.999Z,2580
2016-11-24T11:51:15.988Z,2272
2016-11-24T11:52:15.977Z,2228
2016-11-24T11:53:15.972Z,2104
2016-11-24T11:54:15.953Z,2540
2016-11-24T11:55:15.943Z,2356
2016-11-24T11:56:15.964Z,2476
2016-11-24T11:57:15.911Z,2272
2016-11-24T11:58:16.216Z,2320
2016-11-24T11:59:15.892Z,2276
2016-11-24T12:00:15.882Z,2132
2016-11-24T12:01:15.865Z,2136
2016-11-24T12:02:15.856Z,2196
2016-11-24T12:03:15.861Z,2280
2016-11-24T12:04:15.832Z,2236
2016-11-24T12:05:15.854Z,2136
2016-11-24T12:06:15.812Z,2068
2016-11-24T12:07:15.789Z,2112
2016-11-24T12:08:15.783Z,2168
2016-11-24T12:09:15.775Z,2300
2016-11-24T12:10:15.751Z,2260
2016-11-24T12:11:15.743Z,2276
2016-11-24T12:12:15.731Z,2248
2016-11-24T12:13:15.723Z,2180
2016-11-24T12:14:15.708Z,1996
2016-11-24T12:15:15.694Z,2068
2016-11-24T12:16:15.684Z,2280
2016-11-24T12:17:15.672Z,2272
2016-11-24T12:18:15.666Z,2148
2016-11-24T12:19:15.646Z,2076
2016-11-24T12:20:15.636Z,2100
2016-11-24T12:21:15.624Z,2004
2016-11-24T12:22:15.616Z,1912
2016-11-24T12:23:15.606Z,1900
2016-11-24T12:24:15.590Z,1852
2016-11-24T12:25:15.606Z,1904
2016-11-24T12:26:15.563Z,1984
2016-11-24T12:27:15.553Z,2040
2016-11-24T12:28:15.541Z,1956
2016-11-24T12:29:15.531Z,1920
2016-11-24T12:30:15.521Z,2060
2016-11-24T12:31:15.505Z,1928
2016-11-24T12:32:15.496Z,1836
2016-11-24T12:33:15.485Z,2064
2016-11-24T12:34:15.471Z,2248
2016-11-24T12:35:15.457Z,2260
2016-11-24T12:36:15.467Z,2268
2016-11-24T12:37:15.434Z,2296
2016-11-24T12:38:15.426Z,2596
2016-11-24T12:39:15.413Z,2624
2016-11-24T12:40:15.719Z,2508
2016-11-24T12:41:15.384Z,2432
2016-11-24T12:42:15.374Z,2664
2016-11-24T12:43:15.360Z,2564
2016-11-24T12:44:15.354Z,2488
2016-11-24T12:45:15.336Z,2384
2016-11-24T12:46:15.327Z,2600
2016-11-24T12:47:15.317Z,2476
2016-11-24T12:48:15.304Z,2360
2016-11-24T12:49:15.297Z,2268
2016-11-24T12:50:15.280Z,2324
2016-11-24T12:51:15.270Z,2212
2016-11-24T12:52:15.255Z,2284
2016-11-24T12:53:15.242Z,2400
2016-11-24T12:54:15.226Z,2260
2016-11-24T12:55:15.222Z,2040
2016-11-24T12:56:15.200Z,2244
2016-11-24T12:57:15.196Z,2168
2016-11-24T12:58:15.211Z,2068
2016-11-24T12:59:15.172Z,2044
2016-11-24T13:00:15.162Z,1828
2016-11-24T13:01:15.140Z,1704
2016-11-24T13:02:15.134Z,1732
2016-11-24T13:03:15.125Z,1648
2016-11-24T13:04:15.111Z,1960
2016-11-24T13:05:15.099Z,1820
2016-11-24T13:06:15.088Z,2004
2016-11-24T13:07:15.075Z,2004
2016-11-24T13:08:15.057Z,2248
2016-11-24T13:09:15.052Z,1956
2016-11-24T13:10:15.036Z,1716
2016-11-24T13:11:15.032Z,1768
2016-11-24T13:12:15.016Z,1516
2016-11-24T13:13:15.005Z,1424
2016-11-24T13:14:14.993Z,1600
2016-11-24T13:15:14.980Z,1348
2016-11-24T13:16:14.968Z,1440
2016-11-24T13:17:14.955Z,1504
2016-11-24T13:18:14.951Z,1224
2016-11-24T13:19:14.928Z,1236
2016-11-24T13:20:14.919Z,1128
2016-11-24T13:21:14.907Z,1084
2016-11-24T13:22:14.897Z,1084
2016-11-24T13:23:14.892Z,1088
2016-11-24T13:24:14.868Z,1136
2016-11-24T13:25:14.863Z,1104
2016-11-24T13:26:14.850Z,1148
2016-11-24T13:27:14.838Z,1048
2016-11-24T13:28:14.825Z,988
2016-11-24T13:29:14.810Z,1052
2016-11-24T13:30:14.803Z,1272
2016-11-24T13:31:14.789Z,1136
2016-11-24T13:32:14.780Z,1108
2016-11-24T13:33:14.788Z,972
2016-11-24T13:34:14.751Z,1052
2016-11-24T13:35:14.744Z,1184
2016-11-24T13:36:14.731Z,1068
2016-11-24T13:37:14.774Z,1164
2016-11-24T13:38:14.709Z,1104
2016-11-24T13:39:14.697Z,924
2016-11-24T13:40:14.680Z,980
2016-11-24T13:41:14.669Z,896
2016-11-24T13:42:14.661Z,888
2016-11-24T13:43:14.649Z,884
2016-11-24T13:44:14.636Z,924
2016-11-24T13:45:14.618Z,880
2016-11-24T13:46:14.612Z,780
2016-11-24T13:47:14.596Z,764
2016-11-24T13:48:14.590Z,900
2016-11-24T13:49:14.572Z,852
2016-11-24T13:50:14.571Z,880
2016-11-24T13:51:14.557Z,764
2016-11-24T13:52:14.540Z,676
2016-11-24T13:53:14.530Z,872
2016-11-24T13:54:14.511Z,828
2016-11-24T13:55:14.509Z,928
2016-11-24T13:56:14.489Z,808
2016-11-24T13:57:14.485Z,712
2016-11-24T13:58:14.463Z,688
2016-11-24T13:59:14.456Z,696
2016-11-24T14:00:14.443Z,848